CheckWX is a tool to help pilots better visualize weather data.  It is not intended as a substitute for an official pre-flight weather briefing.

21:44:25 UTC

KIWA TAF
Phoenix-Mesa Gateway Airport
Phoenix, Arizona, USA
KIWA 032325Z 0400/0424 27007KT P6SM FEW150 FM040700 12006KT P6SM SKC FM041800 25006KT P6SM BKN250

Jun-4@
00:00 UTC

Jun-4 @ 00:00 UTC

Jun-4@
07:00 UTC

Jun-4 @ 07:00 UTC

TAF KIWA 032325Z 0400/0424 27007KT P6SM FEW150

Expired

Wind
  • 270° at 7 KTS
Cloud Levels
  • Few at 15,000' AGL

Jun-4@
07:00 UTC

Jun-4 @ 07:00 UTC

Jun-4@
18:00 UTC

Jun-4 @ 18:00 UTC

FM040700 12006KT P6SM SKC

Expired

Wind
  • 120° at 6 KTS
Cloud Levels
  • Clear skies

Jun-4@
18:00 UTC

Jun-4 @ 18:00 UTC

Jun-5@
00:00 UTC

Jun-5 @ 00:00 UTC

FM041800 25006KT P6SM BKN250

From

From Standard forecast or significant change

Wind
  • 250° at 6 KTS
Cloud Levels
  • Broken at 25,000' AGL